Kenneth Carl — WDF8246 — position and weather

sailwx.info

Track history (hours):
 
Tides and Currents Weather Stations Pressure Air Temp Water Temp Dewpoint Dewpoint Depression Visibility Wind Speed Wind Dir Waves Ship Positions

Kenneth Carl

Owner: So. Cal. Ship Services, Inc., San Pedro, CA. More information available from US FCC via Universal Licensing System and Coast Guard Vessel Documentation Center.

Last reported at 2016-Aug-29 17:32 UTC. Time now 2016-Aug-29 18:01 UTC.
Position N 33°35' W 118°07'.

Length 31 m; draft 3 m.

Type: Ship. MMSI: 367492920.

Date/timePositionNaut miles runAvg speedWind from/ knotsBaromVisibWave heightAir tempDewpointWater temp
2016-Aug-29 17:32N 33°35' W 118°07'9 9.0
2016-Aug-29 16:33N 33°42' W 118°14'3 1.2
2016-Aug-29 14:22N 33°44' W 118°16'0 0.2
2016-Aug-29 12:14N 33°44' W 118°16'0 0.0
2016-Aug-29 11:32N 33°44' W 118°16'0 0.0
2016-Aug-29 10:32N 33°44' W 118°16'0 0.0
2016-Aug-29 09:32N 33°44' W 118°16'0 0.0
2016-Aug-29 08:14N 33°44' W 118°16'0 0.0
2016-Aug-29 07:32N 33°44' W 118°16'0 0.0
2016-Aug-29 06:29N 33°44' W 118°16'0 0.0
2016-Aug-29 05:32N 33°44' W 118°16'0 0.0
2016-Aug-29 04:26N 33°44' W 118°16'0 0.0
2016-Aug-29 03:32N 33°44' W 118°16'0 0.0
2016-Aug-29 02:26N 33°44' W 118°16'0 0.0
2016-Aug-29 01:29N 33°44' W 118°16'0 0.0
2016-Aug-29 00:32N 33°44' W 118°16'0 0.0
2016-Aug-28 23:32N 33°44' W 118°16'0 0.0
2016-Aug-28 22:32N 33°44' W 118°16'0 0.0
2016-Aug-28 21:32N 33°44' W 118°16'0 0.0
2016-Aug-28 20:32N 33°44' W 118°16'0 0.0
2016-Aug-28 19:32N 33°44' W 118°16'0 0.0
2016-Aug-28 18:29N 33°44' W 118°16'5 0.1
2016-Aug-26 21:33N 33°40' W 118°12'8 7.6
2016-Aug-26 20:33N 33°34' W 118°07'1 1.2
2016-Aug-26 19:32N 33°35' W 118°08'0 0.0
2016-Aug-26 18:21N 33°35' W 118°08'0 0.0
2016-Aug-26 17:28N 33°35' W 118°08'0 0.0
2016-Aug-26 16:31N 33°35' W 118°08'0 0.0
2016-Aug-26 15:33N 33°35' W 118°08'2 2.2
2016-Aug-26 14:34N 33°37' W 118°09'9 7.8
2016-Aug-26 13:21N 33°44' W 118°16'0 0.0
2016-Aug-26 11:21N 33°44' W 118°16'0 0.0
2016-Aug-26 09:15N 33°44' W 118°16'0 0.0
2016-Aug-26 08:21N 33°44' W 118°16'0 0.0
2016-Aug-26 07:27N 33°44' W 118°16'0 0.0
2016-Aug-26 04:30N 33°44' W 118°16'0 0.0
2016-Aug-26 03:33N 33°44' W 118°16'0 0.0
2016-Aug-25 23:33N 33°44' W 118°16'0 0.0
2016-Aug-25 17:15N 33°44' W 118°16'0 0.0
2016-Aug-25 15:33N 33°44' W 118°16'0 0.0
2016-Aug-25 14:03N 33°44' W 118°16'0 0.0
2016-Aug-25 10:27N 33°44' W 118°16'0 0.0
2016-Aug-25 09:33N 33°44' W 118°16'0 0.0
2016-Aug-25 07:33N 33°44' W 118°16'0 0.0
2016-Aug-25 06:09N 33°44' W 118°16'0 0.0
2016-Aug-25 04:09N 33°44' W 118°16'0 0.0
2016-Aug-25 03:33N 33°44' W 118°16'0 0.0
2016-Aug-25 02:33N 33°44' W 118°16'0 0.0
2016-Aug-25 01:33N 33°44' W 118°16'0 0.0
2016-Aug-25 00:33N 33°44' W 118°16'0 0.0
2016-Aug-24 23:33N 33°44' W 118°16'0 0.0
2016-Aug-24 22:33N 33°44' W 118°16'0 0.4
2016-Aug-24 21:31N 33°44' W 118°16'1 1.4
2016-Aug-24 20:33N 33°43' W 118°15'9 9.0
2016-Aug-24 19:32N 33°36' W 118°09'1 0.9
2016-Aug-24 18:34N 33°35' W 118°08'1 1.3
2016-Aug-24 17:33N 33°34' W 118°07'0 0.0
2016-Aug-24 16:33N 33°34' W 118°07'2 1.7
2016-Aug-24 15:34N 33°35' W 118°08'10 9.8
2016-Aug-24 14:33N 33°43' W 118°16'1 1.3
2016-Aug-24 13:33N 33°44' W 118°16'0 0.0
2016-Aug-24 12:33N 33°44' W 118°16'0 0.0
2016-Aug-24 11:33N 33°44' W 118°16'0 0.0
2016-Aug-24 10:33N 33°44' W 118°16'0 0.0
2016-Aug-24 09:33N 33°44' W 118°16'0 0.0
2016-Aug-24 08:33N 33°44' W 118°16'0 0.0
2016-Aug-24 07:33N 33°44' W 118°16'0 0.0
2016-Aug-24 06:33N 33°44' W 118°16'0 0.0
2016-Aug-24 04:33N 33°44' W 118°16'0 0.0
2016-Aug-24 03:33N 33°44' W 118°16'0 0.0
2016-Aug-24 02:34N 33°44' W 118°16'0 0.0
2016-Aug-24 01:33N 33°44' W 118°16'0 0.0
2016-Aug-24 00:34N 33°44' W 118°16'0 0.0
2016-Aug-23 23:33N 33°44' W 118°16'0 0.0
2016-Aug-23 22:33N 33°44' W 118°16'0 0.0
2016-Aug-23 21:33N 33°44' W 118°16'0 0.0
2016-Aug-23 20:33N 33°44' W 118°16'0 0.0
2016-Aug-23 19:33N 33°44' W 118°16'0 0.0
2016-Aug-23 18:32N 33°44' W 118°16'0 0.0
2016-Aug-23 17:33N 33°44' W 118°16'0 0.0
2016-Aug-23 16:33N 33°44' W 118°16'0 0.0
2016-Aug-23 15:33N 33°44' W 118°16'0 0.0
2016-Aug-23 14:33N 33°44' W 118°16'0 0.0
2016-Aug-23 13:33N 33°44' W 118°16'0 0.0
2016-Aug-23 12:33N 33°44' W 118°16'0 0.0
2016-Aug-23 11:33N 33°44' W 118°16'0 0.0
2016-Aug-23 10:33N 33°44' W 118°16'0 0.0
2016-Aug-23 09:33N 33°44' W 118°16'0 0.0
2016-Aug-23 08:33N 33°44' W 118°16'0 0.0
2016-Aug-23 07:33N 33°44' W 118°16'0 0.0
2016-Aug-23 06:33N 33°44' W 118°16'0 0.0
2016-Aug-23 05:33N 33°44' W 118°16'0 0.0
2016-Aug-23 04:33N 33°44' W 118°16'0 0.0
2016-Aug-23 03:33N 33°44' W 118°16'0 0.0
2016-Aug-23 02:33N 33°44' W 118°16'0 0.0
2016-Aug-23 01:33N 33°44' W 118°16'0 0.0
2016-Aug-23 00:33N 33°44' W 118°16'3 3.1
2016-Aug-22 23:33N 33°42' W 118°14'9 8.7
2016-Aug-22 22:34N 33°35' W 118°08'0 0.1
2016-Aug-22 21:33N 33°35' W 118°08'0 0.0
2016-Aug-22 20:33N 33°35' W 118°08'0 0.0
2016-Aug-22 19:33N 33°35' W 118°08'0 0.0
2016-Aug-22 18:33N 33°35' W 118°08'0 0.1
2016-Aug-22 17:32N 33°35' W 118°08'4 4.4
2016-Aug-22 16:33N 33°39' W 118°10'7 7.2
2016-Aug-22 15:33N 33°44' W 118°16'0 0.0
2016-Aug-22 14:33N 33°44' W 118°16'0 0.4
2016-Aug-22 13:30N 33°44' W 118°16'0 0.0
2016-Aug-22 12:30N 33°44' W 118°16'0 0.0
2016-Aug-22 11:30N 33°44' W 118°16'0 0.0
2016-Aug-22 10:24N 33°44' W 118°16'0 0.0
2016-Aug-22 09:33N 33°44' W 118°16'0 0.0
2016-Aug-22 08:24N 33°44' W 118°16'0 0.0
2016-Aug-22 07:33N 33°44' W 118°16'0 0.0
2016-Aug-22 06:33N 33°44' W 118°16'0 0.0
2016-Aug-22 05:21N 33°44' W 118°16'0 0.0
2016-Aug-22 04:33N 33°44' W 118°16'0 0.0
2016-Aug-22 03:33N 33°44' W 118°16'0 0.0
2016-Aug-22 02:24N 33°44' W 118°16'0 0.0
2016-Aug-22 01:33N 33°44' W 118°16'0 0.0
2016-Aug-22 00:33N 33°44' W 118°16'0 0.0
2016-Aug-21 23:27N 33°44' W 118°16'0 0.0
2016-Aug-21 22:33N 33°44' W 118°16'0 0.0
2016-Aug-21 21:33N 33°44' W 118°16'0 0.0
2016-Aug-21 20:27N 33°44' W 118°16'0 0.0
2016-Aug-21 19:33N 33°44' W 118°16'0 0.0
2016-Aug-21 18:30N 33°44' W 118°16'0 0.0
2016-Aug-21 17:33N 33°44' W 118°16'0 0.0
2016-Aug-21 16:18N 33°44' W 118°16'0 0.0
2016-Aug-21 15:21N 33°44' W 118°16'0 0.0
2016-Aug-21 14:24N 33°44' W 118°16'0 0.0
2016-Aug-21 12:33N 33°44' W 118°16'0 0.0
2016-Aug-21 11:33N 33°44' W 118°16'0 0.0
2016-Aug-21 10:33N 33°44' W 118°16'0 0.0
2016-Aug-21 09:33N 33°44' W 118°16'0 0.0
2016-Aug-21 08:33N 33°44' W 118°16'0 0.0
2016-Aug-21 07:33N 33°44' W 118°16'0 0.0
2016-Aug-21 06:30N 33°44' W 118°16'0 0.0
2016-Aug-21 05:33N 33°44' W 118°16'0 0.0
2016-Aug-21 04:30N 33°44' W 118°16'0 0.0
2016-Aug-21 03:21N 33°44' W 118°16'0 0.0
2016-Aug-21 02:30N 33°44' W 118°16'0 0.0
2016-Aug-21 01:33N 33°44' W 118°16'0 0.0
2016-Aug-21 00:30N 33°44' W 118°16'0 0.0
2016-Aug-20 23:33N 33°44' W 118°16'0 0.0
2016-Aug-20 22:30N 33°44' W 118°16'0 0.0
2016-Aug-20 21:33N 33°44' W 118°16'0 0.0
2016-Aug-20 20:30N 33°44' W 118°16'0 0.0
2016-Aug-20 19:27N 33°44' W 118°16'0 0.0
2016-Aug-20 18:24N 33°44' W 118°16'0 0.0
2016-Aug-20 17:33N 33°44' W 118°16'0 0.0
2016-Aug-20 16:30N 33°44' W 118°16'0 0.0
2016-Aug-20 15:30N 33°44' W 118°16'0 0.0
2016-Aug-20 14:33N 33°44' W 118°16'0 0.0
2016-Aug-20 10:27N 33°44' W 118°16'0 0.0
2016-Aug-20 09:21N 33°44' W 118°16'0 0.0
2016-Aug-20 08:30N 33°44' W 118°16'0 0.0
2016-Aug-20 07:12N 33°44' W 118°16'0 0.0
2016-Aug-20 03:30N 33°44' W 118°16'0 0.0
2016-Aug-20 02:33N 33°44' W 118°16'0 0.0
2016-Aug-20 01:33N 33°44' W 118°16'0 0.0
2016-Aug-20 00:30N 33°44' W 118°16'0 0.0
2016-Aug-19 23:34N 33°44' W 118°16'0 0.0
2016-Aug-19 22:34N 33°44' W 118°16'1 1.3
2016-Aug-19 21:34N 33°43' W 118°16'9 9.2
2016-Aug-19 20:33N 33°36' W 118°09'1 1.1
2016-Aug-19 19:33N 33°35' W 118°08'0 0.1
2016-Aug-19 18:33N 33°35' W 118°08'0 0.0
2016-Aug-19 17:33N 33°35' W 118°08'  
Track history (hours):
 
Tides and Currents Weather Stations Pressure Air Temp Water Temp Dewpoint Dewpoint Depression Visibility Wind Speed Wind Dir Waves Ship Positions

Kenneth Carl

Owner: So. Cal. Ship Services, Inc., San Pedro, CA. More information available from US FCC via Universal Licensing System and Coast Guard Vessel Documentation Center.

Last reported at 2016-Aug-29 17:32 UTC. Time now 2016-Aug-29 18:01 UTC.
Position N 33°35' W 118°07'.

Length 31 m; draft 3 m.

Type: Ship. MMSI: 367492920.

Date/timePositionNaut miles runAvg speedWind from/ knotsBaromVisibWave heightAir tempDewpointWater temp
2016-Aug-29 17:32N 33°35' W 118°07'9 9.0
2016-Aug-29 16:33N 33°42' W 118°14'3 1.2
2016-Aug-29 14:22N 33°44' W 118°16'0 0.2
2016-Aug-29 12:14N 33°44' W 118°16'0 0.0
2016-Aug-29 11:32N 33°44' W 118°16'0 0.0
2016-Aug-29 10:32N 33°44' W 118°16'0 0.0
2016-Aug-29 09:32N 33°44' W 118°16'0 0.0
2016-Aug-29 08:14N 33°44' W 118°16'0 0.0
2016-Aug-29 07:32N 33°44' W 118°16'0 0.0
2016-Aug-29 06:29N 33°44' W 118°16'0 0.0
2016-Aug-29 05:32N 33°44' W 118°16'0 0.0
2016-Aug-29 04:26N 33°44' W 118°16'0 0.0
2016-Aug-29 03:32N 33°44' W 118°16'0 0.0
2016-Aug-29 02:26N 33°44' W 118°16'0 0.0
2016-Aug-29 01:29N 33°44' W 118°16'0 0.0
2016-Aug-29 00:32N 33°44' W 118°16'0 0.0
2016-Aug-28 23:32N 33°44' W 118°16'0 0.0
2016-Aug-28 22:32N 33°44' W 118°16'0 0.0
2016-Aug-28 21:32N 33°44' W 118°16'0 0.0
2016-Aug-28 20:32N 33°44' W 118°16'0 0.0
2016-Aug-28 19:32N 33°44' W 118°16'0 0.0
2016-Aug-28 18:29N 33°44' W 118°16'5 0.1
2016-Aug-26 21:33N 33°40' W 118°12'8 7.6
2016-Aug-26 20:33N 33°34' W 118°07'1 1.2
2016-Aug-26 19:32N 33°35' W 118°08'0 0.0
2016-Aug-26 18:21N 33°35' W 118°08'0 0.0
2016-Aug-26 17:28N 33°35' W 118°08'0 0.0
2016-Aug-26 16:31N 33°35' W 118°08'0 0.0
2016-Aug-26 15:33N 33°35' W 118°08'2 2.2
2016-Aug-26 14:34N 33°37' W 118°09'9 7.8
2016-Aug-26 13:21N 33°44' W 118°16'0 0.0
2016-Aug-26 11:21N 33°44' W 118°16'0 0.0
2016-Aug-26 09:15N 33°44' W 118°16'0 0.0
2016-Aug-26 08:21N 33°44' W 118°16'0 0.0
2016-Aug-26 07:27N 33°44' W 118°16'0 0.0
2016-Aug-26 04:30N 33°44' W 118°16'0 0.0
2016-Aug-26 03:33N 33°44' W 118°16'0 0.0
2016-Aug-25 23:33N 33°44' W 118°16'0 0.0
2016-Aug-25 17:15N 33°44' W 118°16'0 0.0
2016-Aug-25 15:33N 33°44' W 118°16'0 0.0
2016-Aug-25 14:03N 33°44' W 118°16'0 0.0
2016-Aug-25 10:27N 33°44' W 118°16'0 0.0
2016-Aug-25 09:33N 33°44' W 118°16'0 0.0
2016-Aug-25 07:33N 33°44' W 118°16'0 0.0
2016-Aug-25 06:09N 33°44' W 118°16'0 0.0
2016-Aug-25 04:09N 33°44' W 118°16'0 0.0
2016-Aug-25 03:33N 33°44' W 118°16'0 0.0
2016-Aug-25 02:33N 33°44' W 118°16'0 0.0
2016-Aug-25 01:33N 33°44' W 118°16'0 0.0
2016-Aug-25 00:33N 33°44' W 118°16'0 0.0
2016-Aug-24 23:33N 33°44' W 118°16'0 0.0
2016-Aug-24 22:33N 33°44' W 118°16'0 0.4
2016-Aug-24 21:31N 33°44' W 118°16'1 1.4
2016-Aug-24 20:33N 33°43' W 118°15'9 9.0
2016-Aug-24 19:32N 33°36' W 118°09'1 0.9
2016-Aug-24 18:34N 33°35' W 118°08'1 1.3
2016-Aug-24 17:33N 33°34' W 118°07'0 0.0
2016-Aug-24 16:33N 33°34' W 118°07'2 1.7
2016-Aug-24 15:34N 33°35' W 118°08'10 9.8
2016-Aug-24 14:33N 33°43' W 118°16'1 1.3
2016-Aug-24 13:33N 33°44' W 118°16'0 0.0
2016-Aug-24 12:33N 33°44' W 118°16'0 0.0
2016-Aug-24 11:33N 33°44' W 118°16'0 0.0
2016-Aug-24 10:33N 33°44' W 118°16'0 0.0
2016-Aug-24 09:33N 33°44' W 118°16'0 0.0
2016-Aug-24 08:33N 33°44' W 118°16'0 0.0
2016-Aug-24 07:33N 33°44' W 118°16'0 0.0
2016-Aug-24 06:33N 33°44' W 118°16'0 0.0
2016-Aug-24 04:33N 33°44' W 118°16'0 0.0
2016-Aug-24 03:33N 33°44' W 118°16'0 0.0
2016-Aug-24 02:34N 33°44' W 118°16'0 0.0
2016-Aug-24 01:33N 33°44' W 118°16'0 0.0
2016-Aug-24 00:34N 33°44' W 118°16'0 0.0
2016-Aug-23 23:33N 33°44' W 118°16'0 0.0
2016-Aug-23 22:33N 33°44' W 118°16'0 0.0
2016-Aug-23 21:33N 33°44' W 118°16'0 0.0
2016-Aug-23 20:33N 33°44' W 118°16'0 0.0
2016-Aug-23 19:33N 33°44' W 118°16'0 0.0
2016-Aug-23 18:32N 33°44' W 118°16'0 0.0
2016-Aug-23 17:33N 33°44' W 118°16'0 0.0
2016-Aug-23 16:33N 33°44' W 118°16'0 0.0
2016-Aug-23 15:33N 33°44' W 118°16'0 0.0
2016-Aug-23 14:33N 33°44' W 118°16'0 0.0
2016-Aug-23 13:33N 33°44' W 118°16'0 0.0
2016-Aug-23 12:33N 33°44' W 118°16'0 0.0
2016-Aug-23 11:33N 33°44' W 118°16'0 0.0
2016-Aug-23 10:33N 33°44' W 118°16'0 0.0
2016-Aug-23 09:33N 33°44' W 118°16'0 0.0
2016-Aug-23 08:33N 33°44' W 118°16'0 0.0
2016-Aug-23 07:33N 33°44' W 118°16'0 0.0
2016-Aug-23 06:33N 33°44' W 118°16'0 0.0
2016-Aug-23 05:33N 33°44' W 118°16'0 0.0
2016-Aug-23 04:33N 33°44' W 118°16'0 0.0
2016-Aug-23 03:33N 33°44' W 118°16'0 0.0
2016-Aug-23 02:33N 33°44' W 118°16'0 0.0
2016-Aug-23 01:33N 33°44' W 118°16'0 0.0
2016-Aug-23 00:33N 33°44' W 118°16'3 3.1
2016-Aug-22 23:33N 33°42' W 118°14'9 8.7
2016-Aug-22 22:34N 33°35' W 118°08'0 0.1
2016-Aug-22 21:33N 33°35' W 118°08'0 0.0
2016-Aug-22 20:33N 33°35' W 118°08'0 0.0
2016-Aug-22 19:33N 33°35' W 118°08'0 0.0
2016-Aug-22 18:33N 33°35' W 118°08'0 0.1
2016-Aug-22 17:32N 33°35' W 118°08'4 4.4
2016-Aug-22 16:33N 33°39' W 118°10'7 7.2
2016-Aug-22 15:33N 33°44' W 118°16'0 0.0
2016-Aug-22 14:33N 33°44' W 118°16'0 0.4
2016-Aug-22 13:30N 33°44' W 118°16'0 0.0
2016-Aug-22 12:30N 33°44' W 118°16'0 0.0
2016-Aug-22 11:30N 33°44' W 118°16'0 0.0
2016-Aug-22 10:24N 33°44' W 118°16'0 0.0
2016-Aug-22 09:33N 33°44' W 118°16'0 0.0
2016-Aug-22 08:24N 33°44' W 118°16'0 0.0
2016-Aug-22 07:33N 33°44' W 118°16'0 0.0
2016-Aug-22 06:33N 33°44' W 118°16'0 0.0
2016-Aug-22 05:21N 33°44' W 118°16'0 0.0
2016-Aug-22 04:33N 33°44' W 118°16'0 0.0
2016-Aug-22 03:33N 33°44' W 118°16'0 0.0
2016-Aug-22 02:24N 33°44' W 118°16'0 0.0
2016-Aug-22 01:33N 33°44' W 118°16'0 0.0
2016-Aug-22 00:33N 33°44' W 118°16'0 0.0
2016-Aug-21 23:27N 33°44' W 118°16'0 0.0
2016-Aug-21 22:33N 33°44' W 118°16'0 0.0
2016-Aug-21 21:33N 33°44' W 118°16'0 0.0
2016-Aug-21 20:27N 33°44' W 118°16'0 0.0
2016-Aug-21 19:33N 33°44' W 118°16'0 0.0
2016-Aug-21 18:30N 33°44' W 118°16'0 0.0
2016-Aug-21 17:33N 33°44' W 118°16'0 0.0
2016-Aug-21 16:18N 33°44' W 118°16'0 0.0
2016-Aug-21 15:21N 33°44' W 118°16'0 0.0
2016-Aug-21 14:24N 33°44' W 118°16'0 0.0
2016-Aug-21 12:33N 33°44' W 118°16'0 0.0
2016-Aug-21 11:33N 33°44' W 118°16'0 0.0
2016-Aug-21 10:33N 33°44' W 118°16'0 0.0
2016-Aug-21 09:33N 33°44' W 118°16'0 0.0
2016-Aug-21 08:33N 33°44' W 118°16'0 0.0
2016-Aug-21 07:33N 33°44' W 118°16'0 0.0
2016-Aug-21 06:30N 33°44' W 118°16'0 0.0
2016-Aug-21 05:33N 33°44' W 118°16'0 0.0
2016-Aug-21 04:30N 33°44' W 118°16'0 0.0
2016-Aug-21 03:21N 33°44' W 118°16'0 0.0
2016-Aug-21 02:30N 33°44' W 118°16'0 0.0
2016-Aug-21 01:33N 33°44' W 118°16'0 0.0
2016-Aug-21 00:30N 33°44' W 118°16'0 0.0
2016-Aug-20 23:33N 33°44' W 118°16'0 0.0
2016-Aug-20 22:30N 33°44' W 118°16'0 0.0
2016-Aug-20 21:33N 33°44' W 118°16'0 0.0
2016-Aug-20 20:30N 33°44' W 118°16'0 0.0
2016-Aug-20 19:27N 33°44' W 118°16'0 0.0
2016-Aug-20 18:24N 33°44' W 118°16'0 0.0
2016-Aug-20 17:33N 33°44' W 118°16'0 0.0
2016-Aug-20 16:30N 33°44' W 118°16'0 0.0
2016-Aug-20 15:30N 33°44' W 118°16'0 0.0
2016-Aug-20 14:33N 33°44' W 118°16'0 0.0
2016-Aug-20 10:27N 33°44' W 118°16'0 0.0
2016-Aug-20 09:21N 33°44' W 118°16'0 0.0
2016-Aug-20 08:30N 33°44' W 118°16'0 0.0
2016-Aug-20 07:12N 33°44' W 118°16'0 0.0
2016-Aug-20 03:30N 33°44' W 118°16'0 0.0
2016-Aug-20 02:33N 33°44' W 118°16'0 0.0
2016-Aug-20 01:33N 33°44' W 118°16'0 0.0
2016-Aug-20 00:30N 33°44' W 118°16'0 0.0
2016-Aug-19 23:34N 33°44' W 118°16'0 0.0
2016-Aug-19 22:34N 33°44' W 118°16'1 1.3
2016-Aug-19 21:34N 33°43' W 118°16'9 9.2
2016-Aug-19 20:33N 33°36' W 118°09'1 1.1
2016-Aug-19 19:33N 33°35' W 118°08'0 0.1
2016-Aug-19 18:33N 33°35' W 118°08'0 0.0
2016-Aug-19 17:33N 33°35' W 118°08'  

Dump ship's entire track history